Aurora, South Dakota
Current Conditions -  °F | °C
As of 4:30 PM on Monday 22 Dec 2014 (Local Time) from KMDS Reporting Station
Overcast Overcast  
Wind Chill: 30°   Ceiling: 3700
Heat Index: 34°   Visibility: 10mi
Dew Point: 34°   Wind: 5mph
Humidity: 100%   Direction: 300°WNW
Pressure: 29.42"   Gusts: NA
Location:  44.28°N, 96.69°W
Report Text: KMDS 222230Z AUTO 30004KT 10SM FEW030 OVC037 01/01 A2942 RMK AO2
Loading
Personal Weather Stations






























Interactive Weather Map New forecast layout! Learn more

10-Day Weather Forecast

Advertisements
Track Severe Weather on mobile